createdAt,value
2023-03-06T00:01:21.595Z,73.30
2023-03-06T00:03:48.591Z,72.20
2023-03-06T00:06:15.595Z,73.30
2023-03-06T00:08:42.565Z,73.50
2023-03-06T00:11:09.463Z,73.40
2023-03-06T00:13:36.448Z,73.70
2023-03-06T00:16:07.012Z,73.90
2023-03-06T00:18:38.617Z,72.60
2023-03-06T00:21:08.890Z,73.50
2023-03-06T00:23:36.412Z,73.30
2023-03-06T00:26:06.361Z,73.40
2023-03-06T00:28:37.942Z,72.20
2023-03-06T00:31:07.482Z,72.70
2023-03-06T00:33:38.326Z,73.40
2023-03-06T00:36:06.347Z,74.10
2023-03-06T00:38:38.449Z,74.20
2023-03-06T00:41:11.237Z,74.90
2023-03-06T00:43:38.338Z,75.30
2023-03-06T00:46:08.123Z,75.60
2023-03-06T00:48:39.613Z,76.10
2023-03-06T00:51:10.943Z,76.30
2023-03-06T00:53:43.642Z,76.60
2023-03-06T00:56:10.757Z,76.70
2023-03-06T00:58:39.908Z,76.80
2023-03-06T01:01:12.408Z,77.10
2023-03-06T01:03:41.945Z,77.00
2023-03-06T01:06:11.100Z,76.80
2023-03-06T01:08:38.186Z,76.70
2023-03-06T01:11:10.597Z,76.80
2023-03-06T01:13:37.536Z,77.20
2023-03-06T01:16:08.816Z,77.20
2023-03-06T01:18:35.978Z,76.70
2023-03-06T01:21:06.057Z,77.20
2023-03-06T01:23:35.111Z,77.10
2023-03-06T01:26:05.250Z,77.10
2023-03-06T01:28:35.226Z,77.20
2023-03-06T01:31:04.807Z,76.80
2023-03-06T01:33:39.269Z,76.60
2023-03-06T01:36:14.409Z,77.00
2023-03-06T01:38:41.387Z,77.00
2023-03-06T01:41:11.424Z,76.80
2023-03-06T01:43:42.400Z,76.60
2023-03-06T01:46:35.050Z,75.90
2023-03-06T01:49:13.319Z,76.40
2023-03-06T01:51:44.124Z,75.90
2023-03-06T01:54:29.988Z,76.20
2023-03-06T01:57:12.638Z,76.20
2023-03-06T01:59:44.785Z,75.80
2023-03-06T02:02:16.861Z,76.00
2023-03-06T02:04:44.317Z,75.90
2023-03-06T02:07:13.899Z,75.70
2023-03-06T02:09:40.851Z,75.70
2023-03-06T02:12:14.627Z,75.70
2023-03-06T02:14:44.639Z,75.20
2023-03-06T02:17:15.115Z,75.50
2023-03-06T02:20:04.893Z,75.80
2023-03-06T02:22:51.385Z,76.00
2023-03-06T02:25:24.501Z,76.30
2023-03-06T02:27:53.920Z,76.20
2023-03-06T02:30:27.101Z,76.80
2023-03-06T02:32:56.339Z,77.10
2023-03-06T02:35:30.418Z,77.20
2023-03-06T02:38:06.948Z,77.30
2023-03-06T02:40:33.998Z,77.50
2023-03-06T02:43:01.692Z,77.60
2023-03-06T02:45:40.161Z,77.60
2023-03-06T02:48:09.944Z,77.90
2023-03-06T02:50:36.925Z,78.20
2023-03-06T02:53:03.923Z,78.60
2023-03-06T02:55:31.317Z,77.90
2023-03-06T02:57:58.322Z,78.70
2023-03-06T03:00:25.690Z,78.60
2023-03-06T03:02:53.204Z,78.90
2023-03-06T03:05:24.639Z,79.30
2023-03-06T03:08:01.270Z,79.50
2023-03-06T03:10:28.998Z,79.80
2023-03-06T03:12:56.205Z,79.80
2023-03-06T03:15:24.488Z,79.90
2023-03-06T03:17:51.538Z,80.00
2023-03-06T03:20:23.803Z,80.00
2023-03-06T03:22:52.818Z,80.00
2023-03-06T03:25:20.257Z,80.10
2023-03-06T03:27:51.923Z,80.30
2023-03-06T03:30:19.951Z,80.40
2023-03-06T03:32:46.901Z,80.40
2023-03-06T03:35:16.659Z,80.40
2023-03-06T03:37:43.705Z,80.40
2023-03-06T03:40:15.445Z,80.20
2023-03-06T03:42:44.938Z,80.90
2023-03-06T03:45:14.858Z,80.60
2023-03-06T03:47:44.564Z,80.70
2023-03-06T03:50:12.994Z,80.70
2023-03-06T03:52:45.113Z,80.50
2023-03-06T03:55:12.967Z,80.70
2023-03-06T03:57:46.395Z,80.90
2023-03-06T04:00:16.700Z,81.10
2023-03-06T04:02:55.083Z,79.90
2023-03-06T04:05:33.956Z,80.30
2023-03-06T04:08:03.319Z,81.00
2023-03-06T04:10:34.370Z,80.90
2023-03-06T04:13:02.340Z,80.90
2023-03-06T04:15:31.861Z,81.40
2023-03-06T04:18:00.514Z,81.60
2023-03-06T04:20:29.381Z,81.60
2023-03-06T04:23:04.572Z,81.50
2023-03-06T04:25:36.298Z,81.70
2023-03-06T04:28:08.102Z,81.80
2023-03-06T04:30:35.192Z,81.90
2023-03-06T04:33:02.907Z,81.10
2023-03-06T04:35:30.134Z,81.40
2023-03-06T04:38:06.600Z,81.60
2023-03-06T04:40:39.420Z,81.10
2023-03-06T04:43:06.480Z,80.40
2023-03-06T04:45:33.778Z,80.80
2023-03-06T04:48:02.985Z,81.20
2023-03-06T04:50:32.597Z,81.10
2023-03-06T04:53:08.649Z,81.20
2023-03-06T04:55:38.609Z,81.50
2023-03-06T04:58:07.873Z,81.70
2023-03-06T05:00:37.309Z,81.90
2023-03-06T05:03:06.832Z,81.60
2023-03-06T05:05:33.753Z,81.50
2023-03-06T05:08:03.235Z,81.80
2023-03-06T05:10:34.896Z,81.20
2023-03-06T05:13:01.896Z,81.80
2023-03-06T05:15:28.922Z,81.90
2023-03-06T05:18:01.063Z,81.90
2023-03-06T05:20:32.844Z,82.30
2023-03-06T05:22:59.758Z,82.90
2023-03-06T05:25:28.963Z,82.10
2023-03-06T05:27:56.015Z,81.90
2023-03-06T05:30:23.388Z,81.10
2023-03-06T05:32:50.631Z,80.50
2023-03-06T05:35:24.793Z,80.00
2023-03-06T05:37:54.180Z,79.70
2023-03-06T05:40:25.895Z,79.60
2023-03-06T05:42:55.828Z,80.30
2023-03-06T05:45:22.737Z,80.70
2023-03-06T05:47:51.721Z,81.10
2023-03-06T05:50:18.667Z,81.70
2023-03-06T05:52:50.309Z,81.50
2023-03-06T05:55:19.585Z,81.10
2023-03-06T05:57:48.698Z,81.00
2023-03-06T06:00:18.700Z,81.00
2023-03-06T06:02:46.006Z,81.20
2023-03-06T06:05:13.367Z,81.10
2023-03-06T06:07:42.608Z,81.20
2023-03-06T06:10:10.781Z,81.40
2023-03-06T06:12:40.341Z,80.70
2023-03-06T06:15:12.725Z,81.30
2023-03-06T06:17:39.630Z,81.40
2023-03-06T06:20:09.382Z,81.00
2023-03-06T06:22:41.327Z,81.30
2023-03-06T06:25:13.385Z,80.60
2023-03-06T06:27:40.337Z,80.70
2023-03-06T06:30:08.064Z,80.70
2023-03-06T06:32:37.588Z,80.50
2023-03-06T06:35:04.976Z,80.40
2023-03-06T06:37:31.907Z,80.50
2023-03-06T06:40:01.149Z,80.20
2023-03-06T06:42:35.081Z,79.80
2023-03-06T06:45:08.684Z,79.80
2023-03-06T06:47:41.733Z,79.90
2023-03-06T06:50:12.935Z,80.30
2023-03-06T06:52:42.166Z,80.60
2023-03-06T06:55:14.120Z,80.60
2023-03-06T06:57:41.623Z,80.50
2023-03-06T07:00:14.283Z,80.40
2023-03-06T07:02:41.323Z,80.20
2023-03-06T07:05:10.860Z,80.30
2023-03-06T07:07:41.344Z,80.70
2023-03-06T07:10:12.487Z,81.00
2023-03-06T07:12:39.400Z,80.90
2023-03-06T07:15:09.588Z,81.40
2023-03-06T07:17:38.642Z,81.20
2023-03-06T07:20:10.533Z,81.20
2023-03-06T07:22:49.994Z,81.10
2023-03-06T07:25:20.359Z,80.90
2023-03-06T07:27:55.861Z,81.30
2023-03-06T07:30:23.391Z,81.00
2023-03-06T07:32:53.424Z,81.40
2023-03-06T07:35:21.019Z,81.40
2023-03-06T07:37:48.010Z,81.20
2023-03-06T07:40:20.572Z,81.10
2023-03-06T07:42:49.940Z,81.10
2023-03-06T07:45:24.912Z,80.90
2023-03-06T07:47:52.333Z,81.00
2023-03-06T07:50:19.491Z,81.00
2023-03-06T07:52:51.436Z,81.00
2023-03-06T07:55:18.550Z,81.00
2023-03-06T07:57:49.234Z,81.00
2023-03-06T08:00:16.427Z,80.70
2023-03-06T08:02:45.728Z,81.00
2023-03-06T08:05:14.664Z,80.80
2023-03-06T08:07:45.103Z,80.50
2023-03-06T08:10:17.907Z,80.70
2023-03-06T08:12:52.810Z,80.70
2023-03-06T08:15:19.733Z,80.50
2023-03-06T08:17:48.824Z,80.50
2023-03-06T08:20:18.599Z,80.50
2023-03-06T08:22:53.164Z,81.00
2023-03-06T08:25:22.937Z,81.20
2023-03-06T08:27:52.466Z,81.50
2023-03-06T08:30:19.916Z,81.40
2023-03-06T08:32:49.289Z,81.60
2023-03-06T08:35:23.669Z,81.50
2023-03-06T08:37:53.099Z,81.50
2023-03-06T08:40:20.182Z,81.50
2023-03-06T08:42:49.692Z,81.40
2023-03-06T08:45:16.780Z,81.20
2023-03-06T08:47:43.849Z,81.10
2023-03-06T08:50:15.393Z,81.20
2023-03-06T08:52:45.375Z,81.20
2023-03-06T08:55:15.206Z,80.90
2023-03-06T08:57:44.372Z,80.50
2023-03-06T09:00:14.323Z,80.50
2023-03-06T09:02:43.765Z,80.30
2023-03-06T09:05:11.031Z,79.80
2023-03-06T09:07:37.953Z,80.10
2023-03-06T09:10:10.502Z,79.70
2023-03-06T09:12:49.746Z,79.70
2023-03-06T09:15:24.376Z,79.40
2023-03-06T09:17:51.608Z,79.10
2023-03-06T09:20:18.961Z,79.10
2023-03-06T09:22:48.642Z,78.70
2023-03-06T09:25:20.508Z,78.30
2023-03-06T09:28:01.896Z,78.60
2023-03-06T09:30:34.737Z,77.90
2023-03-06T09:33:06.929Z,78.20
2023-03-06T09:35:51.537Z,77.90
2023-03-06T09:38:19.209Z,77.50
2023-03-06T09:41:26.423Z,77.20
2023-03-06T09:44:19.972Z,77.60
2023-03-06T09:47:24.730Z,77.10
2023-03-06T09:49:54.473Z,77.50
2023-03-06T09:52:46.264Z,77.20
2023-03-06T09:55:24.135Z,77.30
2023-03-06T09:58:14.354Z,77.10
2023-03-06T10:00:55.805Z,76.70
2023-03-06T10:03:29.958Z,76.10
2023-03-06T10:06:09.617Z,75.40
2023-03-06T10:08:43.927Z,75.60
2023-03-06T10:11:11.200Z,75.30
2023-03-06T10:13:50.605Z,75.30
2023-03-06T10:16:30.842Z,75.20
2023-03-06T10:19:03.315Z,75.00
2023-03-06T10:21:57.271Z,74.80
2023-03-06T10:24:31.337Z,74.40
2023-03-06T10:27:36.852Z,74.50
2023-03-06T10:30:26.606Z,73.90
2023-03-06T10:32:59.590Z,73.00
2023-03-06T10:35:49.611Z,73.40
2023-03-06T10:38:26.436Z,72.90
2023-03-06T10:41:11.704Z,73.00
2023-03-06T10:43:46.122Z,72.30
2023-03-06T10:46:14.640Z,72.30
2023-03-06T10:48:46.846Z,72.20
2023-03-06T10:51:22.986Z,71.80
2023-03-06T10:54:00.559Z,71.40
2023-03-06T10:56:41.356Z,71.00
2023-03-06T10:59:14.216Z,71.40
2023-03-06T11:01:45.190Z,71.30
2023-03-06T11:04:22.259Z,71.00
2023-03-06T11:06:55.930Z,70.80
2023-03-06T11:09:25.424Z,70.60
2023-03-06T11:11:55.014Z,70.80
2023-03-06T11:14:27.760Z,70.40
2023-03-06T11:16:55.062Z,70.30
2023-03-06T11:19:28.176Z,69.70
2023-03-06T11:22:06.170Z,69.60
2023-03-06T11:24:40.684Z,69.60
2023-03-06T11:27:23.126Z,69.80
2023-03-06T11:29:54.642Z,69.70
2023-03-06T11:32:29.353Z,70.20
2023-03-06T11:35:07.096Z,70.20
2023-03-06T11:37:42.859Z,70.00
2023-03-06T11:40:21.171Z,69.50
2023-03-06T11:43:07.269Z,70.10
2023-03-06T11:45:56.910Z,70.00
2023-03-06T11:48:28.642Z,69.90
2023-03-06T11:51:25.919Z,68.90
2023-03-06T11:53:55.264Z,69.40
2023-03-06T11:56:43.391Z,69.70
2023-03-06T11:59:50.836Z,69.20
2023-03-06T12:02:35.320Z,69.20
2023-03-06T12:05:26.975Z,68.90
2023-03-06T12:08:03.390Z,68.80
2023-03-06T12:10:37.004Z,68.30
2023-03-06T12:13:28.650Z,68.50
2023-03-06T12:16:23.064Z,68.90
2023-03-06T12:18:58.753Z,68.40
2023-03-06T12:21:47.750Z,68.60
2023-03-06T12:24:14.676Z,67.30
2023-03-06T12:27:09.208Z,67.20
2023-03-06T12:29:46.536Z,66.70
2023-03-06T12:32:35.222Z,66.20
2023-03-06T12:35:23.873Z,66.40
2023-03-06T12:38:21.683Z,67.20
2023-03-06T12:41:03.803Z,65.90
2023-03-06T12:44:09.270Z,65.80
2023-03-06T12:46:43.521Z,65.00
2023-03-06T12:49:32.361Z,64.50
2023-03-06T12:52:02.534Z,64.50
2023-03-06T12:54:30.727Z,65.20
2023-03-06T12:57:00.304Z,64.00
2023-03-06T12:59:48.631Z,63.80
2023-03-06T13:02:35.361Z,64.20
2023-03-06T13:05:22.435Z,64.40
2023-03-06T13:07:55.645Z,65.00
2023-03-06T13:10:33.699Z,65.20
2023-03-06T13:13:24.081Z,64.10
2023-03-06T13:16:10.675Z,64.20
2023-03-06T13:18:37.856Z,64.00
2023-03-06T13:21:04.984Z,64.50
2023-03-06T13:23:35.284Z,64.60
2023-03-06T13:26:11.864Z,63.90
2023-03-06T13:28:50.519Z,63.90
2023-03-06T13:31:33.931Z,64.10
2023-03-06T13:34:31.867Z,63.30
2023-03-06T13:37:17.170Z,64.00
2023-03-06T13:39:55.470Z,63.20
2023-03-06T13:42:42.567Z,62.60
2023-03-06T13:45:38.079Z,62.50
2023-03-06T13:50:52.908Z,63.00
2023-03-06T13:53:22.849Z,62.80
2023-03-06T13:55:52.877Z,63.30
2023-03-06T13:58:29.002Z,64.50
2023-03-06T14:01:19.028Z,64.80
2023-03-06T14:04:16.988Z,64.60
2023-03-06T14:06:58.568Z,63.70
2023-03-06T14:09:28.496Z,63.20
2023-03-06T14:11:59.128Z,62.60
2023-03-06T14:14:51.035Z,62.50
2023-03-06T14:17:31.164Z,62.60
2023-03-06T14:20:13.118Z,62.80
2023-03-06T14:22:42.768Z,63.20
2023-03-06T14:25:29.751Z,63.00
2023-03-06T14:28:12.362Z,63.20
2023-03-06T14:30:49.182Z,63.30
2023-03-06T14:33:28.117Z,64.40
2023-03-06T14:35:58.616Z,67.60
2023-03-06T14:38:39.196Z,69.00
2023-03-06T14:41:06.551Z,70.50
2023-03-06T14:43:38.255Z,72.60
2023-03-06T14:46:07.863Z,73.40
2023-03-06T14:48:41.360Z,74.00
2023-03-06T14:51:22.198Z,74.00
2023-03-06T14:53:53.527Z,73.50
2023-03-06T14:56:25.322Z,74.70
2023-03-06T14:59:01.535Z,75.40
2023-03-06T15:01:32.895Z,76.20
2023-03-06T15:04:02.511Z,76.30
2023-03-06T15:06:50.088Z,76.10
2023-03-06T15:09:20.505Z,75.70
2023-03-06T15:11:54.354Z,76.30
2023-03-06T15:14:27.374Z,77.00
2023-03-06T15:16:54.337Z,77.00
2023-03-06T15:19:25.995Z,77.60
2023-03-06T15:21:55.175Z,77.90
2023-03-06T15:24:32.569Z,79.80
2023-03-06T15:27:04.691Z,80.00
2023-03-06T15:29:37.669Z,80.50
2023-03-06T15:32:25.286Z,81.50
2023-03-06T15:35:30.220Z,81.50
2023-03-06T15:37:57.471Z,81.40
2023-03-06T15:40:25.973Z,81.80
2023-03-06T15:42:53.190Z,81.20
2023-03-06T15:45:24.086Z,81.20
2023-03-06T15:47:54.375Z,81.50
2023-03-06T15:50:31.499Z,81.20
2023-03-06T15:53:02.871Z,82.00
2023-03-06T15:55:29.892Z,82.30
2023-03-06T15:58:00.702Z,82.20
2023-03-06T16:00:30.910Z,82.30
2023-03-06T16:02:58.260Z,82.50
2023-03-06T16:05:25.985Z,82.20
2023-03-06T16:07:53.197Z,82.50
2023-03-06T16:10:24.251Z,82.30
2023-03-06T16:12:53.519Z,82.30
2023-03-06T16:15:29.132Z,81.90
2023-03-06T16:17:58.833Z,82.20
2023-03-06T16:20:32.727Z,81.90
2023-03-06T16:23:10.398Z,82.10
2023-03-06T16:25:42.196Z,81.60
2023-03-06T16:28:16.070Z,81.80
2023-03-06T16:30:45.579Z,80.50
2023-03-06T16:33:12.985Z,81.00
2023-03-06T16:35:44.570Z,81.00
2023-03-06T16:38:14.000Z,80.80
2023-03-06T16:40:43.402Z,81.00
2023-03-06T16:43:10.691Z,81.40
2023-03-06T16:45:43.792Z,81.00
2023-03-06T16:48:14.150Z,80.80
2023-03-06T16:50:43.288Z,81.00
2023-03-06T16:53:10.274Z,80.50
2023-03-06T16:55:39.985Z,81.00
2023-03-06T16:58:08.648Z,80.60
2023-03-06T17:00:40.393Z,80.50
2023-03-06T17:03:12.047Z,80.20
2023-03-06T17:05:39.121Z,80.50
2023-03-06T17:08:06.128Z,80.20
2023-03-06T17:10:33.131Z,80.10
2023-03-06T17:13:00.117Z,80.80
2023-03-06T17:15:27.118Z,80.90
2023-03-06T17:17:54.937Z,81.50
2023-03-06T17:20:26.607Z,81.60
2023-03-06T17:22:53.672Z,82.00
2023-03-06T17:25:22.896Z,82.10
2023-03-06T17:27:57.134Z,82.40
2023-03-06T17:30:24.144Z,82.30
2023-03-06T17:32:53.734Z,82.10
2023-03-06T17:35:23.157Z,82.40
2023-03-06T17:37:54.873Z,82.30
2023-03-06T17:40:21.918Z,82.30
2023-03-06T17:42:50.666Z,82.30
2023-03-06T17:45:17.675Z,82.40
2023-03-06T17:47:49.616Z,82.50
2023-03-06T17:50:19.060Z,82.50
2023-03-06T17:52:46.019Z,82.70
2023-03-06T17:55:15.192Z,82.50
2023-03-06T17:57:46.609Z,82.60
2023-03-06T18:00:16.956Z,82.40
2023-03-06T18:02:45.379Z,82.60
2023-03-06T18:05:20.493Z,82.10
2023-03-06T18:07:47.414Z,82.70
2023-03-06T18:10:16.996Z,82.40
2023-03-06T18:12:44.054Z,82.40
2023-03-06T18:15:13.146Z,82.20
2023-03-06T18:17:40.156Z,82.10
2023-03-06T18:20:07.549Z,82.20
2023-03-06T18:22:34.540Z,82.10
2023-03-06T18:25:03.613Z,82.40
2023-03-06T18:27:33.190Z,82.40
2023-03-06T18:30:00.310Z,82.50
2023-03-06T18:32:29.761Z,82.20
2023-03-06T18:34:59.201Z,82.30
2023-03-06T18:37:26.294Z,82.30
2023-03-06T18:39:55.620Z,82.50
2023-03-06T18:42:27.763Z,82.20
2023-03-06T18:44:56.922Z,82.40
2023-03-06T18:47:26.976Z,82.60
2023-03-06T18:49:56.182Z,82.60
2023-03-06T18:52:32.302Z,82.60
2023-03-06T18:54:59.227Z,82.50
2023-03-06T18:57:30.322Z,82.70
2023-03-06T18:59:57.527Z,82.60
2023-03-06T19:02:24.498Z,82.60
2023-03-06T19:04:54.650Z,82.80
2023-03-06T19:07:24.375Z,82.70
2023-03-06T19:09:51.308Z,83.00
2023-03-06T19:12:18.236Z,83.00
2023-03-06T19:14:49.832Z,82.80
2023-03-06T19:17:16.788Z,83.00
2023-03-06T19:19:47.311Z,82.60
2023-03-06T19:22:16.505Z,82.80
2023-03-06T19:24:46.903Z,83.00
2023-03-06T19:27:13.926Z,82.80
2023-03-06T19:29:49.095Z,82.80
2023-03-06T19:32:18.309Z,82.80
2023-03-06T19:34:47.876Z,83.00
2023-03-06T19:37:17.385Z,82.90
2023-03-06T19:39:46.967Z,83.00
2023-03-06T19:42:14.052Z,83.10
2023-03-06T19:44:45.667Z,83.20
2023-03-06T19:47:19.445Z,83.00
2023-03-06T19:49:48.800Z,82.90
2023-03-06T19:52:20.071Z,83.10
2023-03-06T19:54:52.625Z,83.00
2023-03-06T19:57:25.009Z,82.80
2023-03-06T19:59:54.194Z,82.80
2023-03-06T20:02:26.649Z,82.90
2023-03-06T20:04:54.616Z,83.20
2023-03-06T20:07:23.794Z,80.60
2023-03-06T20:09:54.361Z,81.40
2023-03-06T20:12:23.613Z,82.80
2023-03-06T20:14:55.503Z,83.70
2023-03-06T20:17:22.540Z,84.60
2023-03-06T20:19:49.912Z,84.70
2023-03-06T20:22:19.476Z,85.40
2023-03-06T20:24:51.310Z,85.90
2023-03-06T20:27:20.460Z,86.40
2023-03-06T20:29:47.522Z,86.50
2023-03-06T20:32:14.501Z,86.70
2023-03-06T20:34:49.268Z,86.80
2023-03-06T20:37:18.793Z,87.10
2023-03-06T20:39:45.909Z,87.20
2023-03-06T20:42:19.539Z,87.20
2023-03-06T20:44:48.894Z,87.20
2023-03-06T20:47:15.850Z,87.30
2023-03-06T20:49:42.782Z,86.80
2023-03-06T20:52:11.823Z,86.80
2023-03-06T20:54:38.858Z,87.00
2023-03-06T20:57:08.202Z,87.20
2023-03-06T20:59:35.134Z,87.40
2023-03-06T21:02:02.206Z,87.10
2023-03-06T21:04:38.655Z,87.10
2023-03-06T21:07:07.714Z,87.20
2023-03-06T21:09:43.070Z,87.20
2023-03-06T21:12:10.033Z,86.80
2023-03-06T21:14:39.112Z,86.80
2023-03-06T21:17:09.047Z,86.70
2023-03-06T21:19:36.821Z,86.60
2023-03-06T21:22:05.935Z,86.90
2023-03-06T21:24:33.888Z,86.90
2023-03-06T21:27:00.823Z,86.90
2023-03-06T21:29:30.203Z,87.00
2023-03-06T21:32:01.923Z,86.90
2023-03-06T21:34:31.040Z,87.10
2023-03-06T21:37:00.286Z,87.40
2023-03-06T21:39:27.492Z,87.30
2023-03-06T21:41:54.416Z,87.30
2023-03-06T21:44:23.497Z,87.60
2023-03-06T21:46:53.463Z,87.20
2023-03-06T21:49:26.281Z,86.80
2023-03-06T21:51:55.745Z,86.80
2023-03-06T21:54:26.902Z,86.90
2023-03-06T21:56:53.855Z,86.90
2023-03-06T21:59:23.822Z,86.90
2023-03-06T22:01:54.003Z,86.70
2023-03-06T22:04:21.003Z,86.70
2023-03-06T22:06:50.435Z,86.80
2023-03-06T22:09:20.010Z,86.90
2023-03-06T22:11:49.282Z,86.60
2023-03-06T22:14:21.481Z,86.80
2023-03-06T22:16:50.926Z,86.70
2023-03-06T22:19:17.881Z,86.70
2023-03-06T22:21:44.810Z,86.70
2023-03-06T22:24:16.218Z,86.60
2023-03-06T22:26:48.518Z,86.80
2023-03-06T22:29:15.485Z,86.70
2023-03-06T22:31:42.442Z,86.70
2023-03-06T22:34:14.032Z,86.80
2023-03-06T22:36:48.362Z,86.80
2023-03-06T22:39:17.845Z,86.90
2023-03-06T22:41:47.801Z,86.90
2023-03-06T22:44:18.646Z,86.90
2023-03-06T22:46:51.794Z,87.00
2023-03-06T22:49:23.185Z,87.10
2023-03-06T22:51:52.220Z,86.90
2023-03-06T22:54:23.489Z,87.00
2023-03-06T22:56:52.659Z,86.90
2023-03-06T22:59:19.552Z,86.90
2023-03-06T23:01:52.032Z,86.90
2023-03-06T23:04:19.005Z,86.80
2023-03-06T23:06:50.237Z,86.90
2023-03-06T23:09:21.473Z,86.70
2023-03-06T23:12:09.063Z,86.90
2023-03-06T23:14:56.727Z,86.90
2023-03-06T23:17:42.680Z,86.80
2023-03-06T23:20:28.777Z,86.90
2023-03-06T23:23:16.608Z,86.90
2023-03-06T23:25:48.963Z,87.00
2023-03-06T23:28:15.894Z,87.00
2023-03-06T23:30:48.784Z,87.10
2023-03-06T23:33:18.256Z,87.00
2023-03-06T23:35:47.799Z,86.90
2023-03-06T23:38:17.113Z,86.80
2023-03-06T23:40:47.256Z,86.70
2023-03-06T23:43:17.263Z,86.60
2023-03-06T23:45:57.108Z,86.90
2023-03-06T23:48:28.984Z,86.40
2023-03-06T23:50:58.709Z,86.20
2023-03-06T23:53:27.763Z,86.30
2023-03-06T23:55:59.643Z,86.00
2023-03-06T23:58:29.584Z,85.90
